Terminal Aerodrome Forecast
Issued by NWS

Home | Current Version | Previous Version | Text Only | Print | Product List | Glossary On
Versions: 1 2 3 4 5 6 7 8 9 10 11 12 13 14 15 16 17 18 19 20 21 22 23 24
000
FTUS45 KBOU 141725
TAFBJC
TAF
KBJC 141725Z 1418/1518 34007KT P6SM FEW100 FEW200
     FM141900 02008KT P6SM FEW120 SCT200
     FM142200 08007KT P6SM SCT200
     FM150000 VRB06KT P6SM SCT200
     FM150300 28009KT P6SM SCT200
     FM151300 26007KT P6SM FEW140 SCT200
     FM151700 22007KT P6SM SCT140 BKN200=

USA.gov is the U.S. government's official web portal to all federal, state and local government web resources and services.